sensor_id;sensor_type;location;lat;lon;timestamp;pressure;altitude;pressure_sealevel;temperature;humidity
60897;BME280;46749;32.932;-117.130;2023-05-09T00:02:15;101510.94;;;16.04;59.36
60897;BME280;46749;32.932;-117.130;2023-05-09T00:04:41;101501.34;;;16.04;59.45
60897;BME280;46749;32.932;-117.130;2023-05-09T00:07:08;101506.56;;;16.04;59.38
60897;BME280;46749;32.932;-117.130;2023-05-09T00:09:35;101505.69;;;16.04;59.60
60897;BME280;46749;32.932;-117.130;2023-05-09T00:12:01;101507.47;;;16.05;59.38
60897;BME280;46749;32.932;-117.130;2023-05-09T00:14:28;101499.59;;;16.05;59.46
60897;BME280;46749;32.932;-117.130;2023-05-09T00:16:55;101499.59;;;16.05;59.36
60897;BME280;46749;32.932;-117.130;2023-05-09T00:19:23;101489.13;;;16.05;59.30
60897;BME280;46749;32.932;-117.130;2023-05-09T00:21:50;101483.03;;;16.06;59.28
60897;BME280;46749;32.932;-117.130;2023-05-09T00:24:16;101483.03;;;16.06;59.21
60897;BME280;46749;32.932;-117.130;2023-05-09T00:26:42;101477.78;;;16.06;59.11
60897;BME280;46749;32.932;-117.130;2023-05-09T00:29:08;101479.56;;;16.07;59.40
60897;BME280;46749;32.932;-117.130;2023-05-09T00:31:35;101482.19;;;16.07;59.11
60897;BME280;46749;32.932;-117.130;2023-05-09T00:34:01;101475.16;;;16.06;59.30
60897;BME280;46749;32.932;-117.130;2023-05-09T00:36:27;101481.31;;;16.08;59.42
60897;BME280;46749;32.932;-117.130;2023-05-09T00:38:53;101481.31;;;16.08;59.30
60897;BME280;46749;32.932;-117.130;2023-05-09T00:41:20;101479.59;;;16.08;59.38
60897;BME280;46749;32.932;-117.130;2023-05-09T00:43:46;101478.69;;;16.08;59.33
60897;BME280;46749;32.932;-117.130;2023-05-09T00:46:12;101476.06;;;16.08;59.25
60897;BME280;46749;32.932;-117.130;2023-05-09T00:48:39;101484.81;;;16.08;59.20
60897;BME280;46749;32.932;-117.130;2023-05-09T00:51:05;101481.38;;;16.09;59.30
60897;BME280;46749;32.932;-117.130;2023-05-09T00:53:35;101490.94;;;16.09;59.24
60897;BME280;46749;32.932;-117.130;2023-05-09T00:56:01;101486.63;;;16.09;59.23
60897;BME280;46749;32.932;-117.130;2023-05-09T00:58:28;101482.28;;;16.10;59.22
60897;BME280;46749;32.932;-117.130;2023-05-09T01:00:54;101481.38;;;16.09;59.44
60897;BME280;46749;32.932;-117.130;2023-05-09T01:03:21;101472.66;;;16.10;59.33
60897;BME280;46749;32.932;-117.130;2023-05-09T01:06:10;101481.41;;;16.11;59.25
60897;BME280;46749;32.932;-117.130;2023-05-09T01:11:28;101474.41;;;16.10;59.17
60897;BME280;46749;32.932;-117.130;2023-05-09T01:16:38;101477.94;;;16.12;59.31
60897;BME280;46749;32.932;-117.130;2023-05-09T01:19:49;101477.94;;;16.12;59.31
60897;BME280;46749;32.932;-117.130;2023-05-09T01:22:17;101476.22;;;16.12;59.30
60897;BME280;46749;32.932;-117.130;2023-05-09T01:25:04;101475.31;;;16.12;59.26
60897;BME280;46749;32.932;-117.130;2023-05-09T01:27:52;101471.84;;;16.13;59.20
60897;BME280;46749;32.932;-117.130;2023-05-09T01:30:25;101464.00;;;16.13;59.12
60897;BME280;46749;32.932;-117.130;2023-05-09T01:32:57;101466.59;;;16.13;59.36
60897;BME280;46749;32.932;-117.130;2023-05-09T01:35:29;101460.47;;;16.12;59.19
60897;BME280;46749;32.932;-117.130;2023-05-09T01:37:58;101462.25;;;16.13;59.37
60897;BME280;46749;32.932;-117.130;2023-05-09T01:40:28;101462.25;;;16.13;59.40
60897;BME280;46749;32.932;-117.130;2023-05-09T01:42:58;101467.50;;;16.13;59.17
60897;BME280;46749;32.932;-117.130;2023-05-09T01:45:27;101478.84;;;16.14;59.21
60897;BME280;46749;32.932;-117.130;2023-05-09T01:47:55;101477.97;;;16.13;59.17
60897;BME280;46749;32.932;-117.130;2023-05-09T01:50:23;101480.63;;;16.15;59.18
60897;BME280;46749;32.932;-117.130;2023-05-09T01:52:53;101484.97;;;16.14;59.26
60897;BME280;46749;32.932;-117.130;2023-05-09T01:55:21;101481.53;;;16.15;59.35
60897;BME280;46749;32.932;-117.130;2023-05-09T01:57:52;101478.00;;;16.15;59.35
60897;BME280;46749;32.932;-117.130;2023-05-09T02:00:19;101485.06;;;16.16;59.16
60897;BME280;46749;32.932;-117.130;2023-05-09T02:02:46;101479.81;;;16.16;59.27
60897;BME280;46749;32.932;-117.130;2023-05-09T02:05:13;101483.31;;;16.16;59.34
60897;BME280;46749;32.932;-117.130;2023-05-09T02:07:40;101483.31;;;16.16;59.35
60897;BME280;46749;32.932;-117.130;2023-05-09T02:10:08;101485.94;;;16.16;59.26
60897;BME280;46749;32.932;-117.130;2023-05-09T02:12:36;101482.47;;;16.17;59.24
60897;BME280;46749;32.932;-117.130;2023-05-09T02:15:05;101488.59;;;16.18;59.35
60897;BME280;46749;32.932;-117.130;2023-05-09T02:17:31;101491.22;;;16.18;59.23
60897;BME280;46749;32.932;-117.130;2023-05-09T02:19:58;101492.97;;;16.19;59.32
60897;BME280;46749;32.932;-117.130;2023-05-09T02:22:24;101490.31;;;16.17;59.18
60897;BME280;46749;32.932;-117.130;2023-05-09T02:24:51;101488.63;;;16.19;59.12
60897;BME280;46749;32.932;-117.130;2023-05-09T02:27:18;101491.22;;;16.18;59.29
60897;BME280;46749;32.932;-117.130;2023-05-09T02:29:48;101492.97;;;16.19;59.18
60897;BME280;46749;32.932;-117.130;2023-05-09T02:32:19;101488.63;;;16.19;59.25
60897;BME280;46749;32.932;-117.130;2023-05-09T02:34:48;101479.88;;;16.19;59.21
60897;BME280;46749;32.932;-117.130;2023-05-09T02:37:15;101481.63;;;16.20;59.34
60897;BME280;46749;32.932;-117.130;2023-05-09T02:39:43;101482.50;;;16.19;59.08
60897;BME280;46749;32.932;-117.130;2023-05-09T02:42:12;101478.13;;;16.19;59.16
60897;BME280;46749;32.932;-117.130;2023-05-09T02:44:38;101477.25;;;16.19;59.31
60897;BME280;46749;32.932;-117.130;2023-05-09T02:47:07;101483.34;;;16.18;59.41
60897;BME280;46749;32.932;-117.130;2023-05-09T02:49:33;101480.72;;;16.18;59.15
60897;BME280;46749;32.932;-117.130;2023-05-09T02:52:00;101485.13;;;16.19;59.03
60897;BME280;46749;32.932;-117.130;2023-05-09T02:54:26;101480.72;;;16.18;58.98
60897;BME280;46749;32.932;-117.130;2023-05-09T02:56:52;101477.25;;;16.19;59.13
60897;BME280;46749;32.932;-117.130;2023-05-09T02:59:19;101492.09;;;16.18;59.04
60897;BME280;46749;32.932;-117.130;2023-05-09T03:01:45;101486.84;;;16.18;59.06
60897;BME280;46749;32.932;-117.130;2023-05-09T03:04:11;101488.59;;;16.18;59.15
60897;BME280;46749;32.932;-117.130;2023-05-09T03:06:38;101494.75;;;16.20;59.34
60897;BME280;46749;32.932;-117.130;2023-05-09T03:09:04;101487.72;;;16.19;59.22
60897;BME280;46749;32.932;-117.130;2023-05-09T03:11:30;101495.63;;;16.21;59.22
60897;BME280;46749;32.932;-117.130;2023-05-09T03:13:58;101495.59;;;16.19;59.09
60897;BME280;46749;32.932;-117.130;2023-05-09T03:16:24;101486.84;;;16.18;59.07
60897;BME280;46749;32.932;-117.130;2023-05-09T03:18:50;101487.72;;;16.19;59.00
60897;BME280;46749;32.932;-117.130;2023-05-09T03:21:16;101488.63;;;16.19;58.98
60897;BME280;46749;32.932;-117.130;2023-05-09T03:23:43;101485.97;;;16.18;59.00
60897;BME280;46749;32.932;-117.130;2023-05-09T03:26:09;101492.97;;;16.19;58.98
60897;BME280;46749;32.932;-117.130;2023-05-09T03:28:36;101492.09;;;16.18;59.00
60897;BME280;46749;32.932;-117.130;2023-05-09T03:31:03;101490.34;;;16.19;59.10
60897;BME280;46749;32.932;-117.130;2023-05-09T03:33:29;101480.72;;;16.18;59.25
60897;BME280;46749;32.932;-117.130;2023-05-09T03:35:55;101487.72;;;16.19;58.97
60897;BME280;46749;32.932;-117.130;2023-05-09T03:38:22;101486.81;;;16.17;59.12
60897;BME280;46749;32.932;-117.130;2023-05-09T03:40:52;101485.97;;;16.18;59.07
60897;BME280;46749;32.932;-117.130;2023-05-09T03:43:19;101499.91;;;16.17;58.92
60897;BME280;46749;32.932;-117.130;2023-05-09T03:45:45;101495.56;;;16.17;59.11
60897;BME280;46749;32.932;-117.130;2023-05-09T03:48:11;101497.31;;;16.17;58.96
60897;BME280;46749;32.932;-117.130;2023-05-09T03:50:37;101500.81;;;16.17;59.07
60897;BME280;46749;32.932;-117.130;2023-05-09T03:53:03;101501.66;;;16.16;59.01
60897;BME280;46749;32.932;-117.130;2023-05-09T03:55:30;101511.28;;;16.17;59.05
60897;BME280;46749;32.932;-117.130;2023-05-09T03:57:56;101501.69;;;16.18;59.20
60897;BME280;46749;32.932;-117.130;2023-05-09T04:00:22;101505.16;;;16.17;59.08
60897;BME280;46749;32.932;-117.130;2023-05-09T04:02:48;101503.41;;;16.16;59.07
60897;BME280;46749;32.932;-117.130;2023-05-09T04:05:15;101506.91;;;16.16;59.04
60897;BME280;46749;32.932;-117.130;2023-05-09T04:07:42;101508.63;;;16.16;59.12
60897;BME280;46749;32.932;-117.130;2023-05-09T04:10:08;101497.28;;;16.15;59.00
60897;BME280;46749;32.932;-117.130;2023-05-09T04:12:35;101504.28;;;16.16;59.21
60897;BME280;46749;32.932;-117.130;2023-05-09T04:15:01;101508.63;;;16.16;59.15
60897;BME280;46749;32.932;-117.130;2023-05-09T04:17:27;101510.38;;;16.15;58.92
60897;BME280;46749;32.932;-117.130;2023-05-09T04:19:53;101512.06;;;16.15;58.90
60897;BME280;46749;32.932;-117.130;2023-05-09T04:22:20;101519.13;;;16.16;59.08
60897;BME280;46749;32.932;-117.130;2023-05-09T04:24:46;101519.13;;;16.16;59.00
60897;BME280;46749;32.932;-117.130;2023-05-09T04:27:12;101518.25;;;16.15;59.22
60897;BME280;46749;32.932;-117.130;2023-05-09T04:29:38;101521.69;;;16.14;59.12
60897;BME280;46749;32.932;-117.130;2023-05-09T04:32:05;101515.53;;;16.14;58.99
60897;BME280;46749;32.932;-117.130;2023-05-09T04:34:31;101515.53;;;16.14;59.14
60897;BME280;46749;32.932;-117.130;2023-05-09T04:36:58;101518.25;;;16.15;59.02
60897;BME280;46749;32.932;-117.130;2023-05-09T04:39:24;101527.81;;;16.15;58.98
60897;BME280;46749;32.932;-117.130;2023-05-09T04:41:50;101532.16;;;16.14;59.09
60897;BME280;46749;32.932;-117.130;2023-05-09T04:44:17;101533.91;;;16.14;59.20
60897;BME280;46749;32.932;-117.130;2023-05-09T04:46:44;101530.38;;;16.13;59.15
60897;BME280;46749;32.932;-117.130;2023-05-09T04:49:10;101532.13;;;16.13;59.07
60897;BME280;46749;32.932;-117.130;2023-05-09T04:51:36;101535.63;;;16.13;59.05
60897;BME280;46749;32.932;-117.130;2023-05-09T04:54:02;101540.00;;;16.13;59.10
60897;BME280;46749;32.932;-117.130;2023-05-09T04:56:28;101545.22;;;16.13;59.12
60897;BME280;46749;32.932;-117.130;2023-05-09T04:58:55;101541.72;;;16.12;59.08
60897;BME280;46749;32.932;-117.130;2023-05-09T05:01:21;101543.47;;;16.12;59.15
60897;BME280;46749;32.932;-117.130;2023-05-09T05:03:47;101541.72;;;16.12;59.02
60897;BME280;46749;32.932;-117.130;2023-05-09T05:06:13;101537.34;;;16.11;59.13
60897;BME280;46749;32.932;-117.130;2023-05-09T05:08:39;101546.97;;;16.12;59.01
60897;BME280;46749;32.932;-117.130;2023-05-09T05:11:05;101548.69;;;16.12;59.15
60897;BME280;46749;32.932;-117.130;2023-05-09T05:13:32;101554.78;;;16.11;59.07
60897;BME280;46749;32.932;-117.130;2023-05-09T05:15:58;101545.16;;;16.10;59.05
60897;BME280;46749;32.932;-117.130;2023-05-09T05:18:24;101543.44;;;16.10;59.09
60897;BME280;46749;32.932;-117.130;2023-05-09T05:20:50;101539.03;;;16.09;58.88
60897;BME280;46749;32.932;-117.130;2023-05-09T05:23:16;101541.66;;;16.09;59.06
60897;BME280;46749;32.932;-117.130;2023-05-09T05:25:43;101539.03;;;16.09;59.20
60897;BME280;46749;32.932;-117.130;2023-05-09T05:28:10;101539.84;;;16.08;59.07
60897;BME280;46749;32.932;-117.130;2023-05-09T05:30:36;101543.34;;;16.09;59.01
60897;BME280;46749;32.932;-117.130;2023-05-09T05:33:02;101542.47;;;16.08;59.21
60897;BME280;46749;32.932;-117.130;2023-05-09T05:35:28;101535.47;;;16.07;59.05
60897;BME280;46749;32.932;-117.130;2023-05-09T05:37:54;101531.97;;;16.07;59.08
60897;BME280;46749;32.932;-117.130;2023-05-09T05:40:21;101528.50;;;16.08;59.30
60897;BME280;46749;32.932;-117.130;2023-05-09T05:42:47;101543.28;;;16.06;59.21
60897;BME280;46749;32.932;-117.130;2023-05-09T05:45:13;101543.28;;;16.06;59.14
60897;BME280;46749;32.932;-117.130;2023-05-09T05:47:39;101543.28;;;16.06;59.04
60897;BME280;46749;32.932;-117.130;2023-05-09T05:50:06;101538.91;;;16.05;58.88
60897;BME280;46749;32.932;-117.130;2023-05-09T05:52:35;101537.13;;;16.04;59.15
60897;BME280;46749;32.932;-117.130;2023-05-09T05:55:01;101537.13;;;16.04;59.29
60897;BME280;46749;32.932;-117.130;2023-05-09T05:57:27;101529.28;;;16.04;59.11
60897;BME280;46749;32.932;-117.130;2023-05-09T05:59:54;101524.84;;;16.03;59.14
60897;BME280;46749;32.932;-117.130;2023-05-09T06:02:20;101521.34;;;16.02;59.24
60897;BME280;46749;32.932;-117.130;2023-05-09T06:04:46;101531.81;;;16.02;59.23
60897;BME280;46749;32.932;-117.130;2023-05-09T06:07:12;101527.47;;;16.03;59.16
60897;BME280;46749;32.932;-117.130;2023-05-09T06:09:38;101517.91;;;16.03;59.29
60897;BME280;46749;32.932;-117.130;2023-05-09T06:12:05;101512.66;;;16.03;59.13
60897;BME280;46749;32.932;-117.130;2023-05-09T06:14:31;101518.69;;;16.01;59.23
60897;BME280;46749;32.932;-117.130;2023-05-09T06:16:58;101515.22;;;16.02;59.12
60897;BME280;46749;32.932;-117.130;2023-05-09T06:19:25;101520.47;;;16.02;59.16
60897;BME280;46749;32.932;-117.130;2023-05-09T06:21:51;101513.47;;;16.01;59.21
60897;BME280;46749;32.932;-117.130;2023-05-09T06:24:17;101506.47;;;16.01;59.26
60897;BME280;46749;32.932;-117.130;2023-05-09T06:26:43;101504.75;;;16.02;59.15
60897;BME280;46749;32.932;-117.130;2023-05-09T06:29:10;101503.84;;;16.01;59.40
60897;BME280;46749;32.932;-117.130;2023-05-09T06:31:36;101502.09;;;16.00;59.24
60897;BME280;46749;32.932;-117.130;2023-05-09T06:34:03;101503.84;;;16.01;59.06
60897;BME280;46749;32.932;-117.130;2023-05-09T06:36:30;101502.09;;;16.00;59.10
60897;BME280;46749;32.932;-117.130;2023-05-09T06:38:57;101496.84;;;16.00;59.19
60897;BME280;46749;32.932;-117.130;2023-05-09T06:41:23;101493.34;;;16.00;59.17
60897;BME280;46749;32.932;-117.130;2023-05-09T06:43:51;101484.59;;;15.99;59.05
60897;BME280;46749;32.932;-117.130;2023-05-09T06:46:17;101493.34;;;16.00;59.18
60897;BME280;46749;32.932;-117.130;2023-05-09T06:48:43;101486.31;;;15.97;59.32
60897;BME280;46749;32.932;-117.130;2023-05-09T06:51:10;101488.06;;;15.98;59.25
60897;BME280;46749;32.932;-117.130;2023-05-09T06:53:36;101487.19;;;15.98;59.01
60897;BME280;46749;32.932;-117.130;2023-05-09T06:56:03;101483.69;;;15.97;59.22
60897;BME280;46749;32.932;-117.130;2023-05-09T06:58:29;101486.31;;;15.97;59.05
60897;BME280;46749;32.932;-117.130;2023-05-09T07:00:56;101477.56;;;15.97;59.29
60897;BME280;46749;32.932;-117.130;2023-05-09T07:03:22;101479.25;;;15.96;58.81
60897;BME280;46749;32.932;-117.130;2023-05-09T07:05:48;101475.75;;;15.96;59.19
60897;BME280;46749;32.932;-117.130;2023-05-09T07:08:14;101481.00;;;15.96;59.01
60897;BME280;46749;32.932;-117.130;2023-05-09T07:10:40;101481.84;;;15.95;59.12
60897;BME280;46749;32.932;-117.130;2023-05-09T07:13:06;101474.88;;;15.95;59.19
60897;BME280;46749;32.932;-117.130;2023-05-09T07:15:33;101466.13;;;15.95;58.96
60897;BME280;46749;32.932;-117.130;2023-05-09T07:17:59;101466.13;;;15.95;59.18
60897;BME280;46749;32.932;-117.130;2023-05-09T07:20:26;101468.75;;;15.95;58.97
60897;BME280;46749;32.932;-117.130;2023-05-09T07:22:52;101468.72;;;15.93;59.13
60897;BME280;46749;32.932;-117.130;2023-05-09T07:25:18;101462.59;;;15.93;59.22
60897;BME280;46749;32.932;-117.130;2023-05-09T07:27:44;101472.19;;;15.92;59.09
60897;BME280;46749;32.932;-117.130;2023-05-09T07:30:10;101472.19;;;15.92;59.12
60897;BME280;46749;32.932;-117.130;2023-05-09T07:32:37;101466.06;;;15.91;58.85
60897;BME280;46749;32.932;-117.130;2023-05-09T07:35:04;101464.31;;;15.90;59.15
60897;BME280;46749;32.932;-117.130;2023-05-09T07:37:30;101465.19;;;15.91;58.70
60897;BME280;46749;32.932;-117.130;2023-05-09T07:39:56;101461.69;;;15.90;59.07
60897;BME280;46749;32.932;-117.130;2023-05-09T07:42:23;101464.31;;;15.90;58.99
60897;BME280;46749;32.932;-117.130;2023-05-09T07:44:49;101457.25;;;15.89;58.95
60897;BME280;46749;32.932;-117.130;2023-05-09T07:47:15;101454.63;;;15.89;59.13
60897;BME280;46749;32.932;-117.130;2023-05-09T07:49:41;101455.50;;;15.88;59.09
60897;BME280;46749;32.932;-117.130;2023-05-09T07:52:08;101457.22;;;15.88;59.13
60897;BME280;46749;32.932;-117.130;2023-05-09T07:54:34;101458.97;;;15.87;59.16
60897;BME280;46749;32.932;-117.130;2023-05-09T07:57:00;101462.44;;;15.86;59.22
60897;BME280;46749;32.932;-117.130;2023-05-09T07:59:26;101460.69;;;15.87;58.89
60897;BME280;46749;32.932;-117.130;2023-05-09T08:01:53;101452.81;;;15.85;58.99
60897;BME280;46749;32.932;-117.130;2023-05-09T08:04:19;101459.78;;;15.85;59.17
60897;BME280;46749;32.932;-117.130;2023-05-09T08:06:45;101448.41;;;15.84;58.95
60897;BME280;46749;32.932;-117.130;2023-05-09T08:09:11;101449.31;;;15.85;58.98
60897;BME280;46749;32.932;-117.130;2023-05-09T08:11:37;101453.66;;;15.84;59.00
60897;BME280;46749;32.932;-117.130;2023-05-09T08:14:03;101452.75;;;15.84;59.01
60897;BME280;46749;32.932;-117.130;2023-05-09T08:16:30;101453.66;;;15.84;59.20
60897;BME280;46749;32.932;-117.130;2023-05-09T08:18:56;101458.91;;;15.84;58.90
60897;BME280;46749;32.932;-117.130;2023-05-09T08:21:22;101457.97;;;15.84;59.14
60897;BME280;46749;32.932;-117.130;2023-05-09T08:23:48;101459.72;;;15.83;59.19
60897;BME280;46749;32.932;-117.130;2023-05-09T08:26:15;101457.97;;;15.84;59.29
60897;BME280;46749;32.932;-117.130;2023-05-09T08:28:41;101456.22;;;15.83;59.02
60897;BME280;46749;32.932;-117.130;2023-05-09T08:31:07;101449.22;;;15.82;58.98
60897;BME280;46749;32.932;-117.130;2023-05-09T08:33:33;101456.19;;;15.81;59.20
60897;BME280;46749;32.932;-117.130;2023-05-09T08:35:59;101458.81;;;15.81;59.12
60897;BME280;46749;32.932;-117.130;2023-05-09T08:38:26;101464.03;;;15.81;58.92
60897;BME280;46749;32.932;-117.130;2023-05-09T08:40:59;101460.50;;;15.79;59.13
60897;BME280;46749;32.932;-117.130;2023-05-09T08:43:27;101454.41;;;15.80;59.21
60897;BME280;46749;32.932;-117.130;2023-05-09T08:46:00;101457.88;;;15.79;59.02
60897;BME280;46749;32.932;-117.130;2023-05-09T08:48:28;101453.50;;;15.78;59.12
60897;BME280;46749;32.932;-117.130;2023-05-09T08:50:56;101454.31;;;15.77;59.15
60897;BME280;46749;32.932;-117.130;2023-05-09T08:53:23;101446.47;;;15.77;58.99
60897;BME280;46749;32.932;-117.130;2023-05-09T08:55:50;101447.31;;;15.76;59.13
60897;BME280;46749;32.932;-117.130;2023-05-09T08:58:18;101439.44;;;15.76;58.96
60897;BME280;46749;32.932;-117.130;2023-05-09T09:00:48;101437.69;;;15.75;59.10
60897;BME280;46749;32.932;-117.130;2023-05-09T09:03:16;101442.03;;;15.75;59.15
60897;BME280;46749;32.932;-117.130;2023-05-09T09:05:44;101436.81;;;15.75;59.09
60897;BME280;46749;32.932;-117.130;2023-05-09T09:08:12;101432.41;;;15.74;59.07
60897;BME280;46749;32.932;-117.130;2023-05-09T09:10:40;101435.03;;;15.74;58.92
60897;BME280;46749;32.932;-117.130;2023-05-09T09:13:13;101434.16;;;15.73;58.99
60897;BME280;46749;32.932;-117.130;2023-05-09T09:15:41;101428.03;;;15.73;59.16
60897;BME280;46749;32.932;-117.130;2023-05-09T09:18:11;101420.09;;;15.71;58.80
60897;BME280;46749;32.932;-117.130;2023-05-09T09:20:44;101425.34;;;15.71;59.02
60897;BME280;46749;32.932;-117.130;2023-05-09T09:23:11;101419.22;;;15.71;58.86
60897;BME280;46749;32.932;-117.130;2023-05-09T09:25:45;101416.56;;;15.69;59.00
60897;BME280;46749;32.932;-117.130;2023-05-09T09:28:11;101409.59;;;15.70;58.86
60897;BME280;46749;32.932;-117.130;2023-05-09T09:30:47;101406.94;;;15.68;59.15
60897;BME280;46749;32.932;-117.130;2023-05-09T09:33:25;101402.59;;;15.69;59.04
60897;BME280;46749;32.932;-117.130;2023-05-09T09:35:53;101405.22;;;15.69;59.04
60897;BME280;46749;32.932;-117.130;2023-05-09T09:38:23;101404.31;;;15.68;59.13
60897;BME280;46749;32.932;-117.130;2023-05-09T09:40:54;101404.28;;;15.67;59.01
60897;BME280;46749;32.932;-117.130;2023-05-09T09:43:27;101394.66;;;15.66;58.99
60897;BME280;46749;32.932;-117.130;2023-05-09T09:45:53;101398.19;;;15.66;59.13
60897;BME280;46749;32.932;-117.130;2023-05-09T09:48:24;101396.44;;;15.67;59.04
60897;BME280;46749;32.932;-117.130;2023-05-09T09:50:53;101399.91;;;15.66;59.02
60897;BME280;46749;32.932;-117.130;2023-05-09T09:53:21;101394.66;;;15.66;58.79
60897;BME280;46749;32.932;-117.130;2023-05-09T09:55:49;101395.50;;;15.64;58.88
60897;BME280;46749;32.932;-117.130;2023-05-09T09:58:17;101393.78;;;15.65;59.03
60897;BME280;46749;32.932;-117.130;2023-05-09T10:00:46;101392.00;;;15.64;58.94
60897;BME280;46749;32.932;-117.130;2023-05-09T10:03:15;101390.22;;;15.63;59.15
60897;BME280;46749;32.932;-117.130;2023-05-09T10:05:42;101393.69;;;15.62;58.96
60897;BME280;46749;32.932;-117.130;2023-05-09T10:08:08;101392.84;;;15.63;58.88
60897;BME280;46749;32.932;-117.130;2023-05-09T10:10:35;101391.97;;;15.62;58.78
60897;BME280;46749;32.932;-117.130;2023-05-09T10:13:10;101396.31;;;15.62;58.98
60897;BME280;46749;32.932;-117.130;2023-05-09T10:15:37;101397.13;;;15.61;58.83
60897;BME280;46749;32.932;-117.130;2023-05-09T10:18:03;101397.13;;;15.61;59.04
60897;BME280;46749;32.932;-117.130;2023-05-09T10:20:33;101394.47;;;15.59;58.87
60897;BME280;46749;32.932;-117.130;2023-05-09T10:23:03;101397.91;;;15.58;58.99
60897;BME280;46749;32.932;-117.130;2023-05-09T10:25:46;101397.91;;;15.58;59.32
60897;BME280;46749;32.932;-117.130;2023-05-09T10:28:21;101400.50;;;15.57;58.95
60897;BME280;46749;32.932;-117.130;2023-05-09T10:33:25;101398.72;;;15.56;59.07
60897;BME280;46749;32.932;-117.130;2023-05-09T10:35:53;101411.84;;;15.57;58.76
60897;BME280;46749;32.932;-117.130;2023-05-09T10:38:20;101416.22;;;15.57;58.98
60897;BME280;46749;32.932;-117.130;2023-05-09T10:40:49;101407.44;;;15.55;59.15
60897;BME280;46749;32.932;-117.130;2023-05-09T10:43:17;101411.78;;;15.54;58.84
60897;BME280;46749;32.932;-117.130;2023-05-09T10:45:43;101408.22;;;15.52;58.91
60897;BME280;46749;32.932;-117.130;2023-05-09T10:48:10;101412.56;;;15.52;58.94
60897;BME280;46749;32.932;-117.130;2023-05-09T10:50:37;101403.84;;;15.51;59.03
60897;BME280;46749;32.932;-117.130;2023-05-09T10:53:06;101408.19;;;15.51;58.95
60897;BME280;46749;32.932;-117.130;2023-05-09T10:55:54;101402.09;;;15.52;58.85
60897;BME280;46749;32.932;-117.130;2023-05-09T10:58:29;101394.22;;;15.50;58.96
60897;BME280;46749;32.932;-117.130;2023-05-09T11:01:04;101392.44;;;15.49;58.92
60897;BME280;46749;32.932;-117.130;2023-05-09T11:03:52;101384.56;;;15.48;59.05
60897;BME280;46749;32.932;-117.130;2023-05-09T11:11:56;101401.16;;;15.48;58.95
60897;BME280;46749;32.932;-117.130;2023-05-09T11:17:00;101400.16;;;15.45;59.04
60897;BME280;46749;32.932;-117.130;2023-05-09T11:19:39;101389.69;;;15.45;59.11
60897;BME280;46749;32.932;-117.130;2023-05-09T11:22:27;101387.94;;;15.44;58.93
60897;BME280;46749;32.932;-117.130;2023-05-09T11:25:04;101379.19;;;15.43;59.10
60897;BME280;46749;32.932;-117.130;2023-05-09T11:27:48;101384.44;;;15.43;58.96
60897;BME280;46749;32.932;-117.130;2023-05-09T11:30:16;101389.66;;;15.43;58.82
60897;BME280;46749;32.932;-117.130;2023-05-09T11:32:53;101391.41;;;15.43;58.64
60897;BME280;46749;32.932;-117.130;2023-05-09T11:35:21;101389.63;;;15.42;59.14
60897;BME280;46749;32.932;-117.130;2023-05-09T11:37:50;101384.38;;;15.42;58.88
60897;BME280;46749;32.932;-117.130;2023-05-09T11:40:19;101386.97;;;15.40;59.09
60897;BME280;46749;32.932;-117.130;2023-05-09T11:42:50;101385.19;;;15.39;58.96
60897;BME280;46749;32.932;-117.130;2023-05-09T11:45:21;101389.53;;;15.38;59.09
60897;BME280;46749;32.932;-117.130;2023-05-09T11:47:49;101402.63;;;15.38;59.03
60897;BME280;46749;32.932;-117.130;2023-05-09T11:50:18;101394.75;;;15.38;59.00
60897;BME280;46749;32.932;-117.130;2023-05-09T11:52:46;101393.88;;;15.38;59.06
60897;BME280;46749;32.932;-117.130;2023-05-09T11:55:14;101379.88;;;15.36;59.26
60897;BME280;46749;32.932;-117.130;2023-05-09T11:57:45;101378.13;;;15.36;58.98
60897;BME280;46749;32.932;-117.130;2023-05-09T12:00:15;101376.38;;;15.35;59.24
60897;BME280;46749;32.932;-117.130;2023-05-09T12:02:42;101370.25;;;15.35;59.03
60897;BME280;46749;32.932;-117.130;2023-05-09T12:05:15;101370.25;;;15.35;58.81
60897;BME280;46749;32.932;-117.130;2023-05-09T12:07:42;101365.03;;;15.35;58.87
60897;BME280;46749;32.932;-117.130;2023-05-09T12:10:13;101363.28;;;15.35;58.89
60897;BME280;46749;32.932;-117.130;2023-05-09T12:12:45;101363.25;;;15.34;58.91
60897;BME280;46749;32.932;-117.130;2023-05-09T12:15:12;101356.28;;;15.34;58.90
60897;BME280;46749;32.932;-117.130;2023-05-09T12:17:39;101345.75;;;15.33;59.02
60897;BME280;46749;32.932;-117.130;2023-05-09T12:20:07;101351.84;;;15.32;58.79
60897;BME280;46749;32.932;-117.130;2023-05-09T12:22:34;101350.06;;;15.31;58.99
60897;BME280;46749;32.932;-117.130;2023-05-09T12:25:07;101354.41;;;15.30;59.14
60897;BME280;46749;32.932;-117.130;2023-05-09T12:27:36;101349.19;;;15.30;59.09
60897;BME280;46749;32.932;-117.130;2023-05-09T12:30:06;101357.03;;;15.30;58.96
60897;BME280;46749;32.932;-117.130;2023-05-09T12:32:35;101355.25;;;15.29;59.10
60897;BME280;46749;32.932;-117.130;2023-05-09T12:35:05;101356.13;;;15.28;59.01
60897;BME280;46749;32.932;-117.130;2023-05-09T12:37:31;101361.34;;;15.28;59.02
60897;BME280;46749;32.932;-117.130;2023-05-09T12:40:03;101359.59;;;15.27;58.83
60897;BME280;46749;32.932;-117.130;2023-05-09T12:42:33;101358.66;;;15.27;59.07